Wilfred M Cohen — VCNK — position and weather

sailwx.info

Track history (hours):
 
Tides and Currents Weather Stations Pressure Air Temp Water Temp Dewpoint Dewpoint Depression Visibility Wind Speed Wind Dir Waves Ship Positions

Wilfred M Cohen

Last reported at 2017-Sep-15 11:14 UTC. Time now 2017-Sep-19 22:22 UTC.
Position N 46°30' W 084°20'.

MMSI: 314955479.

Date/timePositionNaut miles runAvg speedWind from/ knotsBaromVisibWave heightAir tempDewpointWater temp
2017-Sep-15 11:14N 46°30' W 084°20'0 0.0
2017-Sep-15 10:51N 46°30' W 084°20'0 0.0
2017-Sep-15 10:29N 46°30' W 084°20'0 0.0
2017-Sep-15 09:55N 46°30' W 084°20'0 0.0
2017-Sep-15 04:22N 46°30' W 084°20'0 0.0
2017-Sep-15 03:54N 46°30' W 084°20'0 0.0
2017-Sep-15 03:17N 46°30' W 084°20'30 0.9
2017-Sep-13 17:37N 46°04' W 083°60'2 8.6
2017-Sep-13 17:24N 46°03' W 083°57'3 8.0
2017-Sep-13 16:59N 46°01' W 083°53'5 8.6
2017-Sep-13 16:27N 45°57' W 083°53'2 4.2
2017-Sep-13 16:00N 45°55' W 083°53'1 2.9
2017-Sep-13 15:30N 45°54' W 083°51'4 7.7
2017-Sep-13 15:00N 45°51' W 083°48'5 8.3
2017-Sep-13 14:27N 45°47' W 083°44'5 8.3
2017-Sep-13 13:53N 45°43' W 083°40'3 8.3
2017-Sep-13 13:30N 45°40' W 083°38'4 8.2
2017-Sep-13 13:00N 45°37' W 083°34'4 8.1
2017-Sep-13 12:30N 45°34' W 083°31'4 8.2
2017-Sep-13 12:00N 45°30' W 083°28'4 8.2
2017-Sep-13 11:30N 45°27' W 083°24'4 8.1
2017-Sep-13 10:58N 45°24' W 083°21'4 8.3
2017-Sep-13 10:30N 45°20' W 083°17'  
Track history (hours):
 
Tides and Currents Weather Stations Pressure Air Temp Water Temp Dewpoint Dewpoint Depression Visibility Wind Speed Wind Dir Waves Ship Positions

Wilfred M Cohen

Last reported at 2017-Sep-15 11:14 UTC. Time now 2017-Sep-19 22:22 UTC.
Position N 46°30' W 084°20'.

MMSI: 314955479.

Date/timePositionNaut miles runAvg speedWind from/ knotsBaromVisibWave heightAir tempDewpointWater temp
2017-Sep-15 11:14N 46°30' W 084°20'0 0.0
2017-Sep-15 10:51N 46°30' W 084°20'0 0.0
2017-Sep-15 10:29N 46°30' W 084°20'0 0.0
2017-Sep-15 09:55N 46°30' W 084°20'0 0.0
2017-Sep-15 04:22N 46°30' W 084°20'0 0.0
2017-Sep-15 03:54N 46°30' W 084°20'0 0.0
2017-Sep-15 03:17N 46°30' W 084°20'30 0.9
2017-Sep-13 17:37N 46°04' W 083°60'2 8.6
2017-Sep-13 17:24N 46°03' W 083°57'3 8.0
2017-Sep-13 16:59N 46°01' W 083°53'5 8.6
2017-Sep-13 16:27N 45°57' W 083°53'2 4.2
2017-Sep-13 16:00N 45°55' W 083°53'1 2.9
2017-Sep-13 15:30N 45°54' W 083°51'4 7.7
2017-Sep-13 15:00N 45°51' W 083°48'5 8.3
2017-Sep-13 14:27N 45°47' W 083°44'5 8.3
2017-Sep-13 13:53N 45°43' W 083°40'3 8.3
2017-Sep-13 13:30N 45°40' W 083°38'4 8.2
2017-Sep-13 13:00N 45°37' W 083°34'4 8.1
2017-Sep-13 12:30N 45°34' W 083°31'4 8.2
2017-Sep-13 12:00N 45°30' W 083°28'4 8.2
2017-Sep-13 11:30N 45°27' W 083°24'4 8.1
2017-Sep-13 10:58N 45°24' W 083°21'4 8.3
2017-Sep-13 10:30N 45°20' W 083°17'  

Dump ship's entire track history